• Join FlightAware (Why Join?)
  • Login
  • US Flag 
03:27PM EDT


 

Airport Tracker/Info


-or-


 

Live Flight TrackerFlight Track Log ✈ AWE3921 ✈ 10-Apr-2013 ✈ KROC - KDCA

Flight Track Log - Related Links

Times and Time Zones

All times are in EDT time to prevent confusion due to time zone crossing. See the AWE3921 flight status page for this flight to view local times or setup timezone preferences in your user account.

Time Position Orientation Groundspeed Altitude Reporting Facility
EDT Latitude Longitude Course Direction KTS MPH feet Rate Location/Type
12:32PM 43.1322 -77.6728 191° South 163 188 1,800  Level Cleveland Center
12:34PM 43.1589 -77.7372 300° West 191 220 6,000 2,220 Climbing Cleveland Center
12:35PM 42.7239 -77.7479 192° South  Level FlightAware Approximate
12:35PM 43.0861 -77.7461 185° South 167 192 7,800  Level Cleveland Center
12:36PM 42.6263 -77.7771 192° South  Level FlightAware Approximate
12:36PM 43.0069 -77.7442 179° South 217 250 10,500  Level Cleveland Center
12:37PM 42.5283 -77.8013 191° South  Level FlightAware Approximate
12:37PM 42.9233 -77.7394 178° South 264 304 12,000  Level Cleveland Center
12:38PM 42.8317 -77.7378 179° South 310 357 13,000 720 Climbing Cleveland Center
12:39PM 42.7425 -77.7589 190° South 321 369 13,500 1,260 Climbing Cleveland Center
12:40PM 42.6494 -77.7856 192° South 327 376 15,600 1,800 Climbing Cleveland Center
12:41PM 42.5539 -77.8067 189° South 337 388 17,200 1,680 Climbing Cleveland Center
12:42PM 42.4608 -77.8333 192° South 345 397 19,000 1,680 Climbing Cleveland Center
12:43PM 42.3656 -77.8572 190° South 350 403 20,600 1,500 Climbing Cleveland Center
12:44PM 42.2703 -77.8808 190° South 355 409 22,000 1,200 Climbing Cleveland Center
12:45PM 42.1728 -77.9047 190° South 355 409 23,000 480 Climbing Cleveland Center
12:46PM 42.0692 -77.9342 192° South 367 422 23,000  Level Cleveland Center
12:47PM 41.9656 -77.9608 191° South 373 429 23,000  Level Cleveland Center
12:48PM 41.8617 -77.9817 188° South 379 436 23,000  Level Cleveland Center
12:49PM 41.7706 -78.0050 191° South 379 436 23,000  Level Cleveland Center
12:50PM 41.6731 -78.0283 190° South 373 429 23,000  Level Cleveland Center
12:51PM 41.5736 -78.0544 191° South 368 423 23,000  Level Cleveland Center
12:52PM 41.4761 -78.0806 191° South 368 423 23,000  Level Cleveland Center
12:53PM 41.3786 -78.1008 189° South 368 423 23,000  Level Cleveland Center
12:53PM 41.3169 -78.1164 191° South 366 421 23,000  Level New York Center
12:54PM 41.2178 -78.1389 190° South 366 421 23,000  Level New York Center
12:55PM 41.1203 -78.0953 161° South 366 421 23,000  Level New York Center
12:56PM 41.0192 -78.0458 160° South 371 427 23,000  Level New York Center
12:57PM 40.9222 -77.9969 159° South 371 427 23,000  Level New York Center
12:58PM 40.8306 -77.9242 149° Southeast 382 440 23,000 -360 Level New York Center
12:59PM 40.7389 -77.8544 150° Southeast 387 445 22,300 -1,620 Descending New York Center
01:00PM 40.6494 -77.7847 149° Southeast 381 438 19,900 -1,200 Descending New York Center
01:01PM 40.5639 -77.7158 149° Southeast 375 432 20,000  Climbing New York Center
01:02PM 40.4781 -77.6500 150° Southeast 370 426 20,000  Level New York Center
01:03PM 40.3881 -77.5811 150° Southeast 365 420 20,000  Level New York Center
01:04PM 40.2981 -77.5150 151° Southeast 365 420 20,000  Level New York Center
01:05PM 40.2064 -77.4408 148° Southeast 365 420 20,000  Level New York Center
01:06PM 40.1206 -77.3756 150° Southeast 370 426 20,000  Level New York Center
01:07PM 40.0342 -77.3133 151° Southeast 360 414 20,000  Level New York Center
01:08PM 39.9614 -77.2358 141° Southeast 366 421 20,000 -300 Level New York Center
01:09PM 39.8981 -77.1353 129° Southeast 366 421 19,400 -1,260 Descending New York Center
01:10PM 39.8311 -77.0239 128° Southeast 366 421 17,600 -1,800 Descending New York Center
01:11PM 39.7697 -76.9211 128° Southeast 366 421 15,900 -1,200 Descending New York Center
01:13PM 39.6833 -76.7667 126° Southeast 344 396 14,600 -1,140 Descending Potomac TRACON
01:14PM 39.6333 -76.6833 128° Southeast 335 386 13,200 -1,380 Descending Potomac TRACON
01:15PM 39.5500 -76.6500 163° South 296 341 12,100 -660 Descending Potomac TRACON
01:16PM 39.4833 -76.6500 180° South 288 331 12,000 -60 Descending Potomac TRACON
01:17PM 39.4000 -76.6500 180° South 286 329 12,000  Level Potomac TRACON
01:18PM 39.3167 -76.6667 189° South 296 341 12,000 -900 Level Potomac TRACON
01:19PM 39.2333 -76.6667 180° South 289 333 10,200 -1,020 Descending Potomac TRACON
01:20PM 39.1667 -76.6833 191° South 270 311 10,000 -120 Descending Potomac TRACON
01:20PM 39.1167 -76.7333 218° Southwest 254 292 10,000 -180 Level Potomac TRACON
01:21PM 39.0667 -76.8000 226° Southwest 256 295 9,700 -1,080 Descending Potomac TRACON
01:22PM 39.0167 -76.8500 218° Southwest 250 288 7,900 -1,800 Descending Potomac TRACON
01:24PM 38.9667 -76.9333 232° Southwest 251 289 6,000 -1,140 Descending Potomac TRACON
01:24PM 38.9667 -77.0000 270° West 189 217 5,700 -1,020 Descending Potomac TRACON
01:25PM 39.0000 -77.0500 311° West 190 219 4,200 -1,440 Descending Potomac TRACON
01:26PM 39.0333 -77.1000 311° West 189 217 3,000 -1,200 Descending Potomac TRACON